Time;durP1;ratioP1;P1;durP2;ratioP2;P2;SDS_P1;SDS_P2;PMS_P1;PMS_P2;Temp;Humidity;BMP_temperature;BMP_pressure;BME280_temperature;BME280_humidity;BME280_pressure;Samples;Min_cycle;Max_cycle;Signal;HPM_P1;HPM_P2
2022/10/25 00:00:48;;;;;;;5.60;1.77;;;;;;;13.06;100.00;101137.47;5094453;28;20487;-35
2022/10/25 00:03:14;;;;;;;8.50;1.90;;;;;;;13.06;100.00;101135.56;5094606;28;20171;-35
2022/10/25 00:05:40;;;;;;;6.80;1.60;;;;;;;13.05;100.00;101144.78;5094746;28;20089;-35
2022/10/25 00:08:06;;;;;;;8.60;2.10;;;;;;;12.96;100.00;101124.50;5094566;28;20540;-35
2022/10/25 00:10:32;;;;;;;11.40;2.30;;;;;;;13.04;100.00;101135.00;5094085;28;20115;-35
2022/10/25 00:12:57;;;;;;;9.20;2.40;;;;;;;13.02;100.00;101126.25;5094506;28;20110;-35
2022/10/25 00:15:23;;;;;;;6.13;2.17;;;;;;;13.13;100.00;101144.41;5094245;28;20069;-35
2022/10/25 00:17:49;;;;;;;7.55;2.10;;;;;;;13.14;100.00;101147.97;5094463;28;20038;-35
2022/10/25 00:20:15;;;;;;;5.47;1.83;;;;;;;13.06;100.00;101132.84;5094174;28;20099;-35
2022/10/25 00:22:41;;;;;;;8.25;2.08;;;;;;;13.13;100.00;101152.56;5094560;28;20145;-35
2022/10/25 00:25:08;;;;;;;7.95;1.92;;;;;;;13.07;100.00;101139.94;5093988;28;20098;-35
2022/10/25 00:27:33;;;;;;;5.97;1.88;;;;;;;13.15;100.00;101161.28;5093963;28;20028;-35
2022/10/25 00:29:58;;;;;;;8.98;1.95;;;;;;;13.14;100.00;101156.94;5093686;28;20024;-35
2022/10/25 00:32:24;;;;;;;6.22;1.90;;;;;;;13.15;100.00;101155.03;5093910;28;20035;-35
2022/10/25 00:34:49;;;;;;;6.57;1.88;;;;;;;13.15;100.00;101155.03;5094271;28;20032;-35
2022/10/25 00:37:15;;;;;;;7.32;1.83;;;;;;;13.16;100.00;101159.38;5094410;28;20456;-35
2022/10/25 00:39:40;;;;;;;7.70;2.28;;;;;;;13.18;100.00;101164.59;5093747;28;20096;-35
2022/10/25 00:42:08;;;;;;;8.13;2.33;;;;;;;13.20;100.00;101167.88;5094390;28;20032;-35
2022/10/25 00:44:39;;;;;;;8.15;2.10;;;;;;;13.20;100.00;101168.72;5093286;28;20028;-35
2022/10/25 00:47:27;;;;;;;12.88;2.00;;;;;;;13.22;100.00;101169.31;5094368;28;20371;-35
2022/10/25 00:50:01;;;;;;;8.40;2.15;;;;;;;13.20;100.00;101159.75;5094320;28;20376;-35
2022/10/25 00:52:31;;;;;;;12.13;2.33;;;;;;;13.26;100.00;101175.09;5094208;28;20035;-35
2022/10/25 00:54:58;;;;;;;9.75;2.17;;;;;;;13.27;100.00;101160.44;5093470;28;20464;-35
2022/10/25 00:57:33;;;;;;;8.38;1.90;;;;;;;13.27;100.00;101169.41;5094103;28;20028;-35
2022/10/25 01:00:00;;;;;;;11.18;2.45;;;;;;;13.26;100.00;101158.81;5093367;28;20110;-35
2022/10/25 01:02:26;;;;;;;7.60;2.17;;;;;;;13.30;100.00;101166.22;5093389;28;20028;-35
2022/10/25 01:04:52;;;;;;;9.90;2.42;;;;;;;13.32;100.00;101165.97;5093866;28;20028;-35
2022/10/25 01:07:17;;;;;;;9.68;2.00;;;;;;;13.34;100.00;101164.69;5093699;28;20035;-35
2022/10/25 01:09:43;;;;;;;10.60;2.20;;;;;;;13.37;100.00;101172.38;5093985;28;20024;-35
2022/10/25 01:12:09;;;;;;;7.38;1.80;;;;;;;13.38;100.00;101170.47;5093282;28;20078;-35
2022/10/25 01:14:39;;;;;;;7.30;1.90;;;;;;;13.40;100.00;101171.03;5092955;28;20032;-35
2022/10/25 01:17:12;;;;;;;10.93;2.30;;;;;;;13.40;100.00;101169.16;5093671;28;20479;-35
2022/10/25 01:19:42;;;;;;;10.68;2.17;;;;;;;13.40;100.00;101174.56;5093474;28;20472;-35
2022/10/25 01:22:09;;;;;;;11.85;2.33;;;;;;;13.41;100.00;101175.41;5092231;28;20122;-35
2022/10/25 01:24:44;;;;;;;10.65;2.17;;;;;;;13.42;100.00;101176.22;5093636;28;20049;-35
2022/10/25 01:27:27;;;;;;;7.35;1.65;;;;;;;13.38;100.00;101170.47;5093090;28;20414;-35
2022/10/25 01:30:08;;;;;;;9.30;2.53;;;;;;;13.42;100.00;101184.38;5093371;28;20116;-35
2022/10/25 01:32:42;;;;;;;6.45;1.90;;;;;;;13.41;100.00;101180.84;5093788;28;20034;-35
2022/10/25 01:35:20;;;;;;;10.10;2.20;;;;;;;13.39;100.00;101191.13;5093127;28;20020;-35
2022/10/25 01:38:03;;;;;;;8.45;2.22;;;;;;;13.36;100.00;101192.41;5093210;28;20392;-35
2022/10/25 01:41:07;;;;;;;10.18;2.05;;;;;;;13.37;100.00;101198.69;5093372;28;20035;-35
2022/10/25 01:43:35;;;;;;;6.93;1.70;;;;;;;13.34;100.00;101188.31;5070530;28;20127;-35
2022/10/25 01:46:39;;;;;;;9.45;2.15;;;;;;;13.35;100.00;101193.50;5070333;28;20064;-35
2022/10/25 01:49:11;;;;;;;12.80;2.30;;;;;;;13.34;100.00;101191.03;5070748;28;20045;-35
2022/10/25 01:51:36;;;;;;;10.38;2.08;;;;;;;13.36;100.00;101189.69;5070245;28;20143;-35
2022/10/25 01:54:02;;;;;;;13.02;2.53;;;;;;;13.34;100.00;101188.31;5070472;28;20064;-35
2022/10/25 01:56:38;;;;;;;9.57;2.00;;;;;;;13.36;100.00;101188.88;5070149;28;20028;-35
2022/10/25 01:59:21;;;;;;;12.05;2.25;;;;;;;13.34;100.00;101189.13;5070280;28;20025;-35
2022/10/25 02:01:55;;;;;;;8.65;2.00;;;;;;;13.35;100.00;101193.50;5070145;28;20040;-35
2022/10/25 02:04:32;;;;;;;7.95;1.92;;;;;;;13.33;100.00;101197.53;5070478;28;20580;-35
2022/10/25 02:07:14;;;;;;;6.70;1.92;;;;;;;13.32;100.00;101196.72;5054040;28;20132;-35
2022/10/25 02:09:49;;;;;;;10.07;2.10;;;;;;;13.33;100.00;101209.22;5070382;28;20036;-35
2022/10/25 02:12:23;;;;;;;7.43;1.73;;;;;;;13.34;100.00;101216.28;5070324;28;20125;-35
2022/10/25 02:15:11;;;;;;;8.32;2.30;;;;;;;13.34;100.00;101205.44;5070229;28;20033;-35
2022/10/25 02:17:39;;;;;;;;;;;;;;;13.37;100.00;101209.53;5070484;28;20047;-35
2022/10/25 02:20:07;;;;;;;9.05;1.90;;;;;;;13.31;100.00;101208.63;5079045;28;19947;-35
2022/10/25 02:22:33;;;;;;;8.60;2.08;;;;;;;13.28;100.00;101211.84;5092678;28;20380;-35
2022/10/25 02:25:00;;;;;;;8.27;1.70;;;;;;;13.27;100.00;101212.03;5093135;28;20020;-35
2022/10/25 02:27:27;;;;;;;10.05;2.15;;;;;;;13.25;100.00;101214.19;5092592;28;20035;-35
2022/10/25 02:29:53;;;;;;;8.15;2.10;;;;;;;13.25;100.00;101219.63;5092722;28;20040;-35
2022/10/25 02:32:19;;;;;;;;;;;;;;;13.23;100.00;101219.06;5092952;28;20032;-35
2022/10/25 02:34:49;;;;;;;8.77;2.15;;;;;;;13.17;100.00;101220.78;5096159;28;19912;-35
2022/10/25 02:37:14;;;;;;;10.38;1.80;;;;;;;13.15;100.00;101233.78;5096753;28;20474;-35
2022/10/25 02:39:40;;;;;;;9.70;2.10;;;;;;;13.09;100.00;101213.84;5096130;28;20024;-35
2022/10/25 02:42:05;;;;;;;12.65;2.58;;;;;;;13.10;100.00;101210.06;5096782;28;20028;-35
2022/10/25 02:44:31;;;;;;;8.37;1.73;;;;;;;13.13;100.00;101217.72;5096098;28;20039;-35
2022/10/25 02:46:56;;;;;;;10.67;1.90;;;;;;;13.10;100.00;101222.81;5096270;28;20262;-35
2022/10/25 02:49:22;;;;;;;6.43;1.90;;;;;;;13.09;100.00;101232.84;5095992;28;20469;-35
2022/10/25 02:51:47;;;;;;;9.07;1.83;;;;;;;13.01;100.00;101221.50;5095900;28;20030;-35
2022/10/25 02:54:12;;;;;;;8.80;1.80;;;;;;;13.05;100.00;101228.94;5096188;28;20024;-35
2022/10/25 02:56:38;;;;;;;9.57;2.00;;;;;;;13.02;100.00;101234.84;5095530;28;20039;-35
2022/10/25 02:59:03;;;;;;;9.67;2.13;;;;;;;13.02;100.00;101240.28;5095770;28;20059;-35
2022/10/25 03:01:29;;;;;;;9.45;2.45;;;;;;;13.00;100.00;101241.59;5095436;28;20344;-35
2022/10/25 03:03:54;;;;;;;9.02;2.28;;;;;;;12.98;100.00;101232.84;5095411;28;20036;-35
2022/10/25 03:06:19;;;;;;;12.07;2.17;;;;;;;12.96;100.00;101238.50;5095582;28;20551;-35
2022/10/25 03:08:45;;;;;;;8.97;2.10;;;;;;;12.94;100.00;101237.94;5095871;28;20518;-35
2022/10/25 03:11:12;;;;;;;10.05;2.45;;;;;;;12.87;100.00;101229.06;5095749;28;20409;-35
2022/10/25 03:13:37;;;;;;;8.32;1.98;;;;;;;12.86;100.00;101230.97;5095834;28;20051;-35
2022/10/25 03:16:03;;;;;;;7.03;2.00;;;;;;;12.88;100.00;101239.72;5095907;28;20111;-35
2022/10/25 03:18:28;;;;;;;10.60;1.95;;;;;;;12.89;100.00;101237.81;5096158;28;20702;-35
2022/10/25 03:20:58;;;;;;;9.80;2.07;;;;;;;12.86;100.00;101247.25;5095040;28;20028;-34
2022/10/25 03:23:24;;;;;;;11.63;1.75;;;;;;;12.75;100.00;101239.13;5095880;28;20353;-34
2022/10/25 03:25:54;;;;;;;13.27;2.50;;;;;;;12.83;100.00;101257.75;5095254;28;20028;-34
2022/10/25 03:28:19;;;;;;;7.38;2.20;;;;;;;12.81;100.00;101266.13;5095202;28;20032;-34
2022/10/25 03:30:45;;;;;;;10.20;2.58;;;;;;;12.71;100.00;101243.34;5095185;28;20059;-34
2022/10/25 03:33:10;;;;;;;8.30;2.17;;;;;;;12.75;100.00;101266.25;5095384;28;20024;-39
2022/10/25 03:35:35;;;;;;;6.55;1.95;;;;;;;12.70;100.00;101264.25;5095321;28;20085;-34
2022/10/25 03:38:01;;;;;;;5.95;1.67;;;;;;;12.72;100.00;101272.13;5095047;28;20483;-34
2022/10/25 03:40:26;;;;;;;5.90;2.00;;;;;;;12.71;100.00;101279.47;5095191;28;20031;-34
2022/10/25 03:42:51;;;;;;;6.07;1.73;;;;;;;12.68;100.00;101281.81;5095332;28;20024;-34
2022/10/25 03:45:17;;;;;;;7.33;1.70;;;;;;;12.67;100.00;101280.97;5093972;28;20106;-34
2022/10/25 03:47:42;;;;;;;6.90;1.60;;;;;;;12.67;100.00;101285.59;5095397;28;20055;-34
2022/10/25 03:50:08;;;;;;;7.23;2.10;;;;;;;12.66;100.00;101283.94;5094776;28;20110;-34
2022/10/25 03:52:33;;;;;;;6.47;1.70;;;;;;;12.65;100.00;101279.56;5094881;28;20110;-34
2022/10/25 03:54:59;;;;;;;9.52;1.70;;;;;;;12.55;100.00;101280.16;5094692;28;20024;-35
2022/10/25 03:57:24;;;;;;;7.80;1.70;;;;;;;12.60;100.00;101291.13;5094735;28;20522;-35
2022/10/25 03:59:49;;;;;;;4.67;1.70;;;;;;;12.60;100.00;101297.38;5094212;28;20419;-35
2022/10/25 04:02:15;;;;;;;6.07;1.60;;;;;;;12.61;100.00;101303.63;5094497;28;20064;-35
2022/10/25 04:04:40;;;;;;;6.43;1.83;;;;;;;12.60;100.00;101299.28;5094438;28;20364;-35
2022/10/25 04:07:06;;;;;;;6.07;1.60;;;;;;;12.56;100.00;101298.91;5094136;28;20036;-35
2022/10/25 04:09:31;;;;;;;6.25;1.60;;;;;;;12.57;100.00;101303.25;5094604;28;20099;-35
2022/10/25 04:11:57;;;;;;;6.30;1.80;;;;;;;12.57;100.00;101294.28;5094835;28;20384;-35
2022/10/25 04:14:22;;;;;;;6.53;1.80;;;;;;;12.54;100.00;101290.19;5094046;28;20027;-35
2022/10/25 04:16:47;;;;;;;4.93;1.37;;;;;;;12.52;100.00;101295.00;5094622;28;20243;-35
2022/10/25 04:19:13;;;;;;;6.97;1.70;;;;;;;12.51;100.00;101298.78;5094529;28;20371;-35
2022/10/25 04:21:38;;;;;;;6.88;1.65;;;;;;;12.46;100.00;101301.34;5094032;28;20024;-35
2022/10/25 04:24:04;;;;;;;6.03;1.70;;;;;;;12.46;100.00;101306.78;5094118;28;20034;-35
2022/10/25 04:26:29;;;;;;;5.13;1.65;;;;;;;12.47;100.00;101305.72;5094295;28;20027;-35
2022/10/25 04:28:55;;;;;;;4.82;1.70;;;;;;;12.43;100.00;101312.66;5094562;28;20111;-35
2022/10/25 04:31:22;;;;;;;6.15;1.60;;;;;;;12.44;100.00;101318.91;5094001;28;20059;-35
2022/10/25 04:33:49;;;;;;;5.75;1.73;;;;;;;12.42;100.00;101319.16;5093654;28;20464;-35
2022/10/25 04:36:14;;;;;;;7.90;1.65;;;;;;;12.41;100.00;101317.50;5093615;28;20388;-35
2022/10/25 04:38:39;;;;;;;7.05;1.55;;;;;;;12.42;100.00;101305.59;5094157;28;20028;-35
2022/10/25 04:41:05;;;;;;;5.13;1.77;;;;;;;12.35;100.00;101302.16;5093811;28;20078;-35
2022/10/25 04:43:30;;;;;;;7.20;1.57;;;;;;;12.35;100.00;101315.72;5093797;28;20265;-35
2022/10/25 04:45:59;;;;;;;6.67;1.67;;;;;;;12.35;100.00;101321.16;5093743;28;20024;-35
2022/10/25 04:48:25;;;;;;;6.43;1.45;;;;;;;12.33;100.00;101315.09;5093734;28;20027;-35
2022/10/25 04:50:50;;;;;;;6.90;1.80;;;;;;;12.34;100.00;101320.28;5094162;28;20028;-35
2022/10/25 04:53:15;;;;;;;7.60;1.97;;;;;;;12.32;100.00;101327.84;5094379;28;20095;-35
2022/10/25 04:55:41;;;;;;;5.87;1.60;;;;;;;12.29;100.00;101325.59;5093748;28;20031;-35
2022/10/25 04:58:06;;;;;;;5.93;1.70;;;;;;;12.28;100.00;101320.41;5093959;28;20726;-35
2022/10/25 05:00:31;;;;;;;4.23;1.47;;;;;;;12.25;100.00;101328.97;5093591;28;20098;-42
2022/10/25 05:02:57;;;;;;;5.73;1.77;;;;;;;12.26;100.00;101333.38;5094177;28;20323;-35
2022/10/25 05:05:23;;;;;;;6.80;1.97;;;;;;;12.25;100.00;101334.41;5093435;28;20339;-35
2022/10/25 05:07:48;;;;;;;4.85;2.20;;;;;;;12.22;100.00;101332.19;5094189;28;20046;-35
2022/10/25 05:10:14;;;;;;;8.57;2.37;;;;;;;12.19;100.00;101333.44;5093649;28;20063;-35
2022/10/25 05:12:39;;;;;;;6.35;1.75;;;;;;;12.19;100.00;101332.63;5094137;28;20286;-35
2022/10/25 05:15:05;;;;;;;6.38;2.15;;;;;;;12.11;100.00;101318.34;5093469;28;20071;-35
2022/10/25 05:17:31;;;;;;;8.80;2.33;;;;;;;12.18;100.00;101330.97;5093098;28;20039;-35
2022/10/25 05:19:57;;;;;;;5.72;1.77;;;;;;;12.17;100.00;101338.28;5093460;28;20091;-36
2022/10/25 05:22:22;;;;;;;6.20;2.20;;;;;;;12.13;100.00;101349.81;5093437;28;20434;-35
2022/10/25 05:24:47;;;;;;;7.80;2.15;;;;;;;12.17;100.00;101348.31;5093138;28;20031;-35
2022/10/25 05:27:13;;;;;;;5.87;2.20;;;;;;;12.16;100.00;101349.38;5093089;28;20032;-35
2022/10/25 05:29:39;;;;;;;10.70;2.30;;;;;;;12.13;100.00;101347.94;5092916;28;20042;-35
2022/10/25 05:32:04;;;;;;;7.15;2.38;;;;;;;12.13;100.00;101357.94;5093345;28;20110;-35
2022/10/25 05:34:29;;;;;;;10.35;2.33;;;;;;;12.10;100.00;101364.63;5092926;28;20026;-35
2022/10/25 05:36:56;;;;;;;10.03;2.30;;;;;;;12.11;100.00;101363.59;5093562;28;20044;-35
2022/10/25 05:39:21;;;;;;;5.55;1.80;;;;;;;12.06;100.00;101353.44;5093751;28;20024;-35
2022/10/25 05:41:48;;;;;;;7.57;1.97;;;;;;;12.08;100.00;101370.31;5093442;28;20035;-35
2022/10/25 05:44:15;;;;;;;6.40;2.25;;;;;;;12.06;100.00;101367.00;5091799;28;20408;-35
2022/10/25 05:46:41;;;;;;;5.90;1.63;;;;;;;12.02;100.00;101356.84;5092802;28;20028;-35
2022/10/25 05:49:06;;;;;;;6.60;2.08;;;;;;;12.09;100.00;101377.38;5092967;28;20502;-35
2022/10/25 05:51:32;;;;;;;6.13;2.03;;;;;;;12.03;100.00;101356.59;5093133;28;20040;-35
2022/10/25 05:54:00;;;;;;;6.95;1.95;;;;;;;12.09;100.00;101379.25;5093133;28;20109;-35
2022/10/25 05:56:29;;;;;;;11.48;2.53;;;;;;;12.05;100.00;101378.06;5092985;28;20036;-35
2022/10/25 05:58:56;;;;;;;8.57;1.80;;;;;;;12.07;100.00;101384.91;5093609;28;20051;-35
2022/10/25 06:01:21;;;;;;;;;;;;;;;12.08;100.00;101386.56;5094266;28;20123;-35
2022/10/25 06:03:48;;;;;;;7.70;2.00;;;;;;;12.08;100.00;101389.28;5093498;28;20046;-35
2022/10/25 06:06:14;;;;;;;6.80;1.77;;;;;;;12.05;100.00;101387.03;5092957;28;20460;-35
2022/10/25 06:08:39;;;;;;;7.28;2.17;;;;;;;12.08;100.00;101391.16;5094615;28;20062;-35
2022/10/25 06:11:07;;;;;;;8.43;2.30;;;;;;;12.03;100.00;101383.72;5097304;28;20032;-35
2022/10/25 06:13:33;;;;;;;4.90;2.00;;;;;;;12.06;100.00;101401.41;5097490;28;20036;-35
2022/10/25 06:16:03;;;;;;;8.30;2.63;;;;;;;11.99;100.00;101389.81;5096521;28;20038;-35
2022/10/25 06:18:28;;;;;;;6.65;2.50;;;;;;;12.05;100.00;101395.16;5097540;28;20464;-35
2022/10/25 06:20:54;;;;;;;6.83;2.60;;;;;;;11.96;100.00;101388.41;5096464;28;20081;-35
2022/10/25 06:23:19;;;;;;;8.27;2.47;;;;;;;12.09;100.00;101403.66;5096264;28;20035;-35
2022/10/25 06:25:44;;;;;;;7.30;3.10;;;;;;;12.07;100.00;101412.03;5096654;28;20032;-35
2022/10/25 06:28:10;;;;;;;7.07;2.73;;;;;;;12.07;100.00;101422.03;5097216;28;20082;-35
2022/10/25 06:30:35;;;;;;;8.40;2.83;;;;;;;12.05;100.00;101422.28;5096530;28;20024;-35
2022/10/25 06:33:01;;;;;;;9.23;3.45;;;;;;;12.04;100.00;101425.19;5096753;28;20355;-35
2022/10/25 06:35:28;;;;;;;8.43;3.03;;;;;;;11.99;100.00;101420.44;5096469;28;20107;-35
2022/10/25 06:37:57;;;;;;;9.43;3.80;;;;;;;12.06;100.00;101432.06;5096924;28;20060;-35
2022/10/25 06:40:22;;;;;;;7.13;3.60;;;;;;;11.98;100.00;101418.81;5096419;28;20032;-35
2022/10/25 06:42:52;;;;;;;8.40;4.27;;;;;;;12.01;100.00;101418.34;5096101;28;20172;-35
2022/10/25 06:45:18;;;;;;;9.88;4.15;;;;;;;12.11;100.00;101440.34;5096573;28;20266;-35
2022/10/25 06:47:46;;;;;;;15.53;4.80;;;;;;;12.09;100.00;101431.59;5096248;28;20468;-35
2022/10/25 06:50:12;;;;;;;12.88;4.07;;;;;;;12.11;100.00;101434.91;5095835;28;20040;-35
2022/10/25 06:52:37;;;;;;;9.90;5.27;;;;;;;12.06;100.00;101429.34;5096726;28;20024;-35
2022/10/25 06:55:02;;;;;;;10.40;4.47;;;;;;;12.13;100.00;101437.41;5096024;28;20479;-35
2022/10/25 06:57:28;;;;;;;6.28;4.13;;;;;;;12.16;100.00;101441.56;5096548;28;20036;-35
2022/10/25 06:59:53;;;;;;;8.80;4.13;;;;;;;12.15;100.00;101442.56;5096105;28;20035;-35
2022/10/25 07:02:18;;;;;;;10.03;4.57;;;;;;;12.09;100.00;101436.19;5095894;28;20027;-35
2022/10/25 07:04:43;;;;;;;8.40;3.97;;;;;;;12.20;100.00;101446.28;5094889;28;20027;-35
2022/10/25 07:07:09;;;;;;;9.40;4.33;;;;;;;12.22;100.00;101462.31;5096138;28;20032;-35
2022/10/25 07:09:34;;;;;;;8.63;4.70;;;;;;;12.17;100.00;101459.47;5095534;28;20127;-35
2022/10/25 07:12:00;;;;;;;8.52;4.32;;;;;;;12.26;100.00;101463.53;5096324;28;20077;-35
2022/10/25 07:14:25;;;;;;;9.27;4.18;;;;;;;12.24;100.00;101455.59;5095699;28;20028;-35
2022/10/25 07:16:50;;;;;;;7.73;4.20;;;;;;;12.28;100.00;101472.25;5096007;28;20050;-35
2022/10/25 07:19:15;;;;;;;10.33;4.97;;;;;;;12.29;100.00;101468.47;5095315;28;20140;-35
2022/10/25 07:21:41;;;;;;;10.77;4.97;;;;;;;12.31;100.00;101471.81;5095398;28;20078;-35
2022/10/25 07:24:09;;;;;;;8.70;4.83;;;;;;;12.27;100.00;101466.00;5096061;28;20032;-35
2022/10/25 07:26:35;;;;;;;8.10;5.15;;;;;;;12.36;100.00;101474.66;5095596;28;20772;-35
2022/10/25 07:29:02;;;;;;;11.05;5.40;;;;;;;12.40;100.00;101483.19;5095212;28;20028;-35
2022/10/25 07:31:33;;;;;;;10.60;5.45;;;;;;;12.45;100.00;101477.91;5095006;28;20035;-35
2022/10/25 07:34:00;;;;;;;8.95;5.18;;;;;;;12.38;100.00;101467.94;5095113;28;20052;-35
2022/10/25 07:36:26;;;;;;;9.48;5.18;;;;;;;12.46;100.00;101490.41;5095244;28;20039;-35
2022/10/25 07:38:52;;;;;;;9.07;5.95;;;;;;;12.46;100.00;101479.56;5095735;28;20032;-35
2022/10/25 07:41:17;;;;;;;10.65;5.88;;;;;;;12.55;100.00;101498.00;5095340;28;20024;-35
2022/10/25 07:43:43;;;;;;;9.73;6.05;;;;;;;12.61;100.00;101498.97;5095191;28;20111;-35
2022/10/25 07:46:08;;;;;;;10.47;6.00;;;;;;;12.65;100.00;101496.66;5095282;28;20078;-35
2022/10/25 07:48:33;;;;;;;13.63;6.47;;;;;;;12.71;100.00;101495.72;5095031;28;20418;-35
2022/10/25 07:51:04;;;;;;;13.27;6.45;;;;;;;12.72;100.00;101498.19;5094566;28;20032;-35
2022/10/25 07:53:29;;;;;;;9.27;6.05;;;;;;;12.78;100.00;101496.44;5095554;28;20032;-35
2022/10/25 07:55:54;;;;;;;13.03;6.33;;;;;;;12.82;100.00;101498.47;5095418;28;20024;-35
2022/10/25 07:58:20;;;;;;;10.87;5.97;;;;;;;12.86;100.00;101502.38;5095363;28;20024;-35
2022/10/25 08:00:46;;;;;;;10.52;7.03;;;;;;;12.89;100.00;101501.09;5095281;28;20047;-35
2022/10/25 08:03:12;;;;;;;10.68;6.20;;;;;;;12.81;100.00;101496.00;5094842;28;20067;-35
2022/10/25 08:05:38;;;;;;;11.48;6.53;;;;;;;12.88;100.00;101496.72;5094419;28;20035;-35
2022/10/25 08:08:04;;;;;;;11.13;6.95;;;;;;;13.00;100.00;101513.06;5094455;28;20028;-35
2022/10/25 08:10:30;;;;;;;10.38;7.20;;;;;;;13.01;100.00;101512.81;5094847;28;20158;-35
2022/10/25 08:12:55;;;;;;;8.68;6.20;;;;;;;13.09;100.00;101514.41;5094426;28;20559;-35
2022/10/25 08:15:21;;;;;;;9.52;6.47;;;;;;;13.08;100.00;101510.03;5094548;28;20099;-35
2022/10/25 08:17:46;;;;;;;11.55;6.40;;;;;;;13.21;100.00;101520.69;5094822;28;20032;-35
2022/10/25 08:20:12;;;;;;;10.70;7.00;;;;;;;13.20;100.00;101512.78;5094211;28;20419;-35
2022/10/25 08:22:37;;;;;;;10.13;7.28;;;;;;;13.26;100.00;101522.72;5094420;28;20024;-35
2022/10/25 08:25:04;;;;;;;9.77;6.83;;;;;;;13.27;100.00;101517.06;5094354;28;20027;-35
2022/10/25 08:27:29;;;;;;;8.52;7.55;;;;;;;13.28;100.00;101515.19;5094346;28;20253;-35
2022/10/25 08:29:55;;;;;;;13.30;7.28;;;;;;;13.32;100.00;101517.22;5094280;28;20053;-35
2022/10/25 08:32:20;;;;;;;12.02;7.50;;;;;;;13.32;100.00;101506.34;5094347;28;20036;-35
2022/10/25 08:34:46;;;;;;;11.00;7.00;;;;;;;13.37;100.00;101520.06;5094252;28;20024;-35
2022/10/25 08:37:11;;;;;;;12.63;7.00;;;;;;;13.37;100.00;101516.50;5094582;28;20024;-35
2022/10/25 08:39:37;;;;;;;13.52;6.78;;;;;;;13.34;100.00;101525.13;5094122;28;20092;-35
2022/10/25 08:42:03;;;;;;;10.00;6.50;;;;;;;13.27;100.00;101518.94;5094746;28;20031;-35
2022/10/25 08:44:40;;;;;;;10.02;6.60;;;;;;;13.33;100.00;101520.75;5093987;28;20028;-35
2022/10/25 08:47:14;;;;;;;14.23;6.10;;;;;;;13.31;100.00;101528.28;5094235;28;20039;-35
2022/10/25 08:49:50;;;;;;;13.30;6.82;;;;;;;13.35;100.00;101527.59;5094233;28;20039;-35
2022/10/25 08:52:52;;;;;;;10.40;6.70;;;;;;;13.46;100.00;101541.44;5093850;28;20024;-35
2022/10/25 08:55:36;;;;;;;8.57;5.93;;;;;;;13.49;100.00;101539.09;5093842;28;20324;-35
2022/10/25 08:58:10;;;;;;;7.70;5.28;;;;;;;13.52;100.00;101538.63;5094388;28;20024;-35
2022/10/25 09:00:38;;;;;;;11.25;5.47;;;;;;;13.54;100.00;101536.50;5094303;28;20367;-35
2022/10/25 09:03:11;;;;;;;10.68;5.47;;;;;;;13.60;100.00;101546.44;5094184;28;20093;-35
2022/10/25 09:05:58;;;;;;;10.18;5.40;;;;;;;13.64;100.00;101546.78;5093453;28;20028;-35
2022/10/25 09:08:42;;;;;;;14.52;5.50;;;;;;;13.69;100.00;101543.38;5094183;28;20028;-35
2022/10/25 09:11:23;;;;;;;9.43;5.57;;;;;;;13.74;100.00;101554.38;5093798;28;20038;-35
2022/10/25 09:13:51;;;;;;;11.00;5.13;;;;;;;13.80;100.00;101556.13;5093844;28;20028;-35
2022/10/25 09:16:32;;;;;;;9.85;5.25;;;;;;;13.94;100.00;101543.97;5093720;28;20066;-35
2022/10/25 09:18:57;;;;;;;10.93;5.30;;;;;;;13.97;100.00;101546.22;5093991;28;20039;-35
2022/10/25 09:21:47;;;;;;;11.63;5.07;;;;;;;14.03;100.00;101553.44;5093945;28;20110;-35
2022/10/25 09:24:21;;;;;;;9.63;4.90;;;;;;;14.02;100.00;101564.56;5093654;28;20024;-35
2022/10/25 09:27:03;;;;;;;11.00;4.57;;;;;;;14.12;100.00;101565.63;5094475;28;20024;-35
2022/10/25 09:29:43;;;;;;;10.05;4.40;;;;;;;14.26;100.00;101574.38;5093302;28;20111;-35
2022/10/25 09:32:23;;;;;;;11.30;4.88;;;;;;;14.28;100.00;101577.66;5093607;28;20024;-35
2022/10/25 09:34:48;;;;;;;9.40;3.80;;;;;;;14.34;100.00;101589.47;5093260;28;20039;-35
2022/10/25 09:37:21;;;;;;;7.47;3.83;;;;;;;14.23;100.00;101565.84;5092954;28;20024;-35
2022/10/25 09:39:53;;;;;;;11.02;3.75;;;;;;;14.27;100.00;101584.19;5093034;28;20107;-35
2022/10/25 09:42:24;;;;;;;7.43;3.42;;;;;;;14.28;100.00;101574.13;5093719;28;20020;-35
2022/10/25 09:45:01;;;;;;;11.93;3.78;;;;;;;14.34;100.00;101584.88;5097823;28;20028;-35
2022/10/25 09:47:30;;;;;;;9.38;3.10;;;;;;;14.34;100.00;101584.88;5097756;28;20038;-35
2022/10/25 09:50:00;;;;;;;9.70;3.42;;;;;;;14.32;100.00;101583.47;5097384;28;20032;-35
2022/10/25 09:52:50;;;;;;;8.15;2.92;;;;;;;14.35;100.00;101586.53;5097315;28;20476;-35
2022/10/25 09:55:34;;;;;;;11.43;3.47;;;;;;;14.32;100.00;101587.00;5097359;28;20099;-35
2022/10/25 09:58:00;;;;;;;6.43;2.30;;;;;;;14.27;100.00;101586.06;5097759;28;20020;-35
2022/10/25 10:00:26;;;;;;;8.20;2.95;;;;;;;14.29;100.00;101592.91;5097299;28;20040;-35
2022/10/25 10:02:51;;;;;;;9.30;3.22;;;;;;;14.27;100.00;101591.50;5097360;28;20044;-35
2022/10/25 10:05:20;;;;;;;8.43;2.70;;;;;;;14.24;100.00;101589.25;5097118;28;20024;-35
2022/10/25 10:07:47;;;;;;;9.05;2.83;;;;;;;14.27;100.00;101594.22;5097123;28;20258;-35
2022/10/25 10:10:17;;;;;;;7.70;2.65;;;;;;;14.26;100.00;101592.59;5096761;28;20024;-35
2022/10/25 10:12:57;;;;;;;6.68;2.80;;;;;;;14.21;100.00;101593.28;5096727;28;20042;-35
2022/10/25 10:15:46;;;;;;;9.52;2.83;;;;;;;14.30;100.00;101604.63;5096753;28;20024;-36
2022/10/25 10:18:30;;;;;;;8.38;2.90;;;;;;;14.28;100.00;101585.81;5093606;28;20042;-36
2022/10/25 10:21:00;;;;;;;8.52;2.80;;;;;;;14.29;100.00;101600.25;5097024;28;20487;-36
2022/10/25 10:23:28;;;;;;;8.73;2.70;;;;;;;14.30;100.00;101615.50;5097036;28;20024;-36
2022/10/25 10:25:54;;;;;;;11.35;3.47;;;;;;;14.24;100.00;101611.03;5097288;28;20029;-36
2022/10/25 10:28:20;;;;;;;9.55;2.97;;;;;;;14.20;100.00;101601.66;5097012;28;20035;-36
2022/10/25 10:30:55;;;;;;;9.38;2.50;;;;;;;14.30;100.00;101616.34;5096856;28;20110;-36
2022/10/25 10:33:21;;;;;;;10.10;2.38;;;;;;;14.28;100.00;101615.75;5096818;28;20483;-36
2022/10/25 10:35:47;;;;;;;10.85;2.67;;;;;;;14.28;100.00;101621.19;5096569;28;20110;-36
2022/10/25 10:38:27;;;;;;;10.20;3.03;;;;;;;14.31;100.00;101622.63;5097121;28;20063;-36
2022/10/25 10:41:13;;;;;;;8.45;2.90;;;;;;;14.35;100.00;101618.38;5096414;28;20368;-36
2022/10/25 10:43:39;;;;;;;7.63;2.40;;;;;;;14.32;100.00;101597.91;5096392;28;20032;-36
2022/10/25 10:46:13;;;;;;;8.35;2.67;;;;;;;14.47;100.00;101616.47;5096393;28;20482;-36
2022/10/25 10:48:42;;;;;;;8.98;2.15;;;;;;;14.45;100.00;101612.34;5096618;28;20503;-36
2022/10/25 10:51:07;;;;;;;8.82;2.30;;;;;;;14.56;100.00;101619.69;5096726;28;20028;-36
2022/10/25 10:53:33;;;;;;;8.63;2.20;;;;;;;14.64;100.00;101628.31;5096505;28;20039;-36
2022/10/25 10:56:02;;;;;;;8.27;1.90;;;;;;;14.72;100.00;101629.00;5095876;28;20020;-36
2022/10/25 10:58:31;;;;;;;6.45;1.90;;;;;;;14.79;100.00;101624.28;5096451;28;20385;-36
2022/10/25 11:01:03;;;;;;;6.78;1.98;;;;;;;14.78;100.00;101609.81;5096166;28;20131;-36
2022/10/25 11:03:45;;;;;;;8.57;2.13;;;;;;;14.93;100.00;101631.06;5096061;28;20035;-36
2022/10/25 11:06:28;;;;;;;6.25;1.58;;;;;;;14.91;100.00;101628.59;5095762;28;20030;-36
2022/10/25 11:09:06;;;;;;;6.28;1.63;;;;;;;14.93;100.00;101631.94;5096722;28;20407;-36
2022/10/25 11:11:32;;;;;;;6.90;1.90;;;;;;;14.89;100.00;101619.84;5096197;28;20032;-36
2022/10/25 11:13:59;;;;;;;5.53;1.73;;;;;;;15.01;100.00;101624.44;5095925;28;20058;-36
2022/10/25 11:16:53;;;;;;;9.52;1.90;;;;;;;15.06;100.00;101630.81;5095450;28;20115;-36
2022/10/25 11:19:40;;;;;;;8.02;1.90;;;;;;;15.10;98.95;101628.44;5094437;28;20040;-36
2022/10/25 11:22:08;;;;;;;7.13;1.98;;;;;;;15.20;99.34;101620.47;5096341;28;20028;-36
2022/10/25 11:24:52;;;;;;;6.40;1.70;;;;;;;15.33;98.93;101617.44;5095560;28;20031;-36